createdAt,value
2022-11-21T00:00:04.004Z,40.88
2022-11-21T00:00:35.389Z,40.36
2022-11-21T00:01:06.791Z,40.43
2022-11-21T00:01:38.245Z,40.47
2022-11-21T00:02:09.709Z,40.91
2022-11-21T00:02:41.108Z,40.58
2022-11-21T00:03:12.513Z,40.42
2022-11-21T00:03:43.902Z,40.73
2022-11-21T00:04:15.315Z,40.29
2022-11-21T00:04:46.708Z,40.82
2022-11-21T00:05:18.164Z,40.66
2022-11-21T00:05:49.586Z,39.96
2022-11-21T00:06:20.992Z,40.40
2022-11-21T00:06:52.396Z,40.45
2022-11-21T00:07:23.823Z,40.37
2022-11-21T00:07:55.247Z,40.63
2022-11-21T00:08:26.639Z,40.20
2022-11-21T00:08:58.030Z,40.45
2022-11-21T00:09:29.428Z,40.43
2022-11-21T00:10:00.837Z,40.33
2022-11-21T00:10:32.343Z,40.57
2022-11-21T00:11:03.731Z,40.76
2022-11-21T00:11:35.128Z,40.85
2022-11-21T00:12:06.539Z,40.71
2022-11-21T00:12:37.928Z,40.26
2022-11-21T00:13:09.326Z,40.77
2022-11-21T00:13:40.722Z,40.66
2022-11-21T00:14:12.126Z,40.22
2022-11-21T00:14:43.520Z,40.73
2022-11-21T00:15:14.916Z,40.24
2022-11-21T00:15:46.379Z,40.81
2022-11-21T00:16:17.785Z,40.33
2022-11-21T00:16:52.100Z,40.50
2022-11-21T00:17:27.445Z,40.34
2022-11-21T00:17:58.847Z,40.87
2022-11-21T00:18:30.244Z,40.18
2022-11-21T00:19:01.660Z,40.85
2022-11-21T00:19:33.048Z,40.34
2022-11-21T00:20:04.446Z,40.48
2022-11-21T00:20:35.839Z,40.36
2022-11-21T00:21:07.337Z,40.73
2022-11-21T00:21:38.752Z,40.65
2022-11-21T00:22:10.144Z,40.47
2022-11-21T00:22:41.540Z,40.23
2022-11-21T00:23:12.930Z,40.56
2022-11-21T00:23:44.334Z,40.66
2022-11-21T00:24:15.760Z,40.39
2022-11-21T00:24:50.491Z,40.67
2022-11-21T00:25:24.451Z,40.56
2022-11-21T00:25:55.838Z,40.52
2022-11-21T00:26:27.232Z,40.61
2022-11-21T00:26:58.619Z,40.48
2022-11-21T00:27:30.011Z,40.56
2022-11-21T00:28:01.399Z,40.49
2022-11-21T00:28:32.815Z,40.68
2022-11-21T00:29:04.208Z,40.40
2022-11-21T00:29:35.594Z,40.40
2022-11-21T00:30:06.980Z,40.80
2022-11-21T00:30:38.491Z,40.65
2022-11-21T00:31:09.884Z,40.61
2022-11-21T00:31:41.281Z,40.42
2022-11-21T00:32:12.697Z,40.39
2022-11-21T00:32:44.117Z,40.56
2022-11-21T00:33:15.527Z,40.74
2022-11-21T00:33:46.923Z,40.83
2022-11-21T00:34:18.328Z,40.62
2022-11-21T00:34:49.718Z,40.92
2022-11-21T00:35:21.127Z,40.71
2022-11-21T00:35:52.653Z,40.82
2022-11-21T00:36:24.046Z,40.84
2022-11-21T00:36:55.429Z,40.73
2022-11-21T00:37:26.815Z,40.75
2022-11-21T00:37:58.205Z,40.75
2022-11-21T00:38:29.592Z,40.99
2022-11-21T00:39:00.994Z,40.91
2022-11-21T00:39:32.399Z,40.98
2022-11-21T00:40:03.787Z,40.58
2022-11-21T00:40:35.185Z,40.63
2022-11-21T00:41:06.709Z,40.60
2022-11-21T00:41:38.104Z,41.08
2022-11-21T00:42:09.490Z,40.50
2022-11-21T00:42:40.923Z,40.93
2022-11-21T00:43:12.354Z,40.85
2022-11-21T00:43:43.751Z,41.02
2022-11-21T00:44:15.147Z,40.91
2022-11-21T00:44:46.531Z,40.97
2022-11-21T00:45:23.866Z,41.24
2022-11-21T00:45:55.797Z,40.90
2022-11-21T00:46:27.327Z,41.30
2022-11-21T00:46:58.717Z,40.74
2022-11-21T00:47:30.114Z,40.97
2022-11-21T00:48:01.505Z,40.88
2022-11-21T00:48:32.894Z,40.63
2022-11-21T00:49:04.298Z,40.70
2022-11-21T00:49:35.687Z,40.95
2022-11-21T00:50:07.115Z,40.58
2022-11-21T00:50:38.530Z,40.78
2022-11-21T00:51:09.922Z,40.97
2022-11-21T00:51:41.395Z,40.93
2022-11-21T00:52:12.795Z,40.97
2022-11-21T00:52:44.193Z,41.18
2022-11-21T00:53:15.643Z,40.94
2022-11-21T00:53:47.134Z,40.84
2022-11-21T00:54:18.566Z,40.94
2022-11-21T00:54:49.962Z,41.06
2022-11-21T00:55:21.361Z,41.16
2022-11-21T00:55:52.764Z,41.08
2022-11-21T00:56:24.194Z,41.04
2022-11-21T00:56:55.662Z,40.94
2022-11-21T00:57:27.054Z,41.04
2022-11-21T00:57:58.466Z,40.97
2022-11-21T00:58:29.861Z,40.81
2022-11-21T00:59:01.251Z,41.11
2022-11-21T00:59:32.645Z,40.98
2022-11-21T01:00:04.053Z,41.07
2022-11-21T01:00:35.509Z,41.21
2022-11-21T01:01:07.041Z,41.07
2022-11-21T01:01:38.495Z,40.76
2022-11-21T01:02:09.923Z,40.59
2022-11-21T01:02:41.330Z,40.95
2022-11-21T01:03:12.785Z,40.88
2022-11-21T01:03:44.196Z,41.06
2022-11-21T01:04:15.608Z,40.93
2022-11-21T01:04:47.015Z,40.88
2022-11-21T01:05:18.407Z,40.78
2022-11-21T01:05:49.805Z,41.06
2022-11-21T01:06:21.218Z,41.03
2022-11-21T01:06:52.608Z,40.63
2022-11-21T01:07:24.211Z,40.84
2022-11-21T01:07:55.628Z,40.59
2022-11-21T01:08:27.039Z,41.02
2022-11-21T01:08:58.456Z,40.91
2022-11-21T01:09:29.849Z,40.98
2022-11-21T01:10:01.244Z,40.57
2022-11-21T01:10:32.638Z,40.92
2022-11-21T01:11:04.028Z,40.46
2022-11-21T01:11:35.422Z,40.75
2022-11-21T01:12:06.816Z,40.61
2022-11-21T01:12:38.335Z,40.87
2022-11-21T01:13:09.745Z,40.82
2022-11-21T01:13:41.163Z,41.12
2022-11-21T01:14:12.582Z,40.48
2022-11-21T01:14:43.968Z,40.75
2022-11-21T01:15:15.361Z,41.17
2022-11-21T01:15:46.770Z,40.80
2022-11-21T01:16:18.164Z,40.73
2022-11-21T01:16:49.559Z,40.73
2022-11-21T01:17:21.041Z,40.87
2022-11-21T01:17:52.500Z,41.01
2022-11-21T01:18:23.918Z,40.62
2022-11-21T01:18:55.324Z,40.67
2022-11-21T01:19:26.719Z,40.54
2022-11-21T01:19:58.111Z,40.90
2022-11-21T01:20:29.504Z,40.56
2022-11-21T01:21:00.921Z,40.52
2022-11-21T01:21:32.318Z,40.90
2022-11-21T01:22:03.733Z,40.85
2022-11-21T01:22:35.136Z,40.72
2022-11-21T01:23:06.580Z,41.07
2022-11-21T01:23:38.005Z,40.43
2022-11-21T01:24:09.413Z,40.59
2022-11-21T01:24:40.800Z,40.64
2022-11-21T01:25:12.185Z,41.07
2022-11-21T01:25:43.583Z,40.94
2022-11-21T01:26:14.982Z,41.25
2022-11-21T01:26:46.384Z,40.92
2022-11-21T01:27:17.864Z,40.98
2022-11-21T01:27:49.272Z,41.01
2022-11-21T01:28:20.727Z,40.98
2022-11-21T01:28:52.137Z,40.82
2022-11-21T01:29:23.537Z,40.75
2022-11-21T01:29:54.933Z,40.66
2022-11-21T01:30:26.346Z,40.68
2022-11-21T01:30:57.732Z,40.61
2022-11-21T01:31:29.139Z,40.48
2022-11-21T01:32:00.627Z,40.93
2022-11-21T01:32:32.028Z,40.80
2022-11-21T01:33:03.443Z,40.49
2022-11-21T01:33:34.880Z,40.94
2022-11-21T01:34:06.275Z,41.04
2022-11-21T01:34:37.670Z,40.94
2022-11-21T01:35:09.086Z,40.33
2022-11-21T01:35:40.502Z,40.83
2022-11-21T01:36:11.907Z,40.92
2022-11-21T01:36:43.304Z,40.72
2022-11-21T01:37:14.687Z,40.38
2022-11-21T01:37:46.098Z,40.62
2022-11-21T01:38:17.499Z,41.21
2022-11-21T01:38:48.939Z,40.74
2022-11-21T01:39:20.334Z,40.70
2022-11-21T01:39:51.736Z,40.49
2022-11-21T01:40:23.123Z,40.76
2022-11-21T01:40:54.534Z,40.81
2022-11-21T01:41:25.944Z,40.66
2022-11-21T01:41:57.331Z,41.14
2022-11-21T01:42:28.733Z,40.65
2022-11-21T01:43:00.137Z,41.12
2022-11-21T01:43:31.544Z,40.78
2022-11-21T01:44:02.995Z,40.67
2022-11-21T01:44:34.377Z,40.82
2022-11-21T01:45:05.769Z,40.82
2022-11-21T01:45:37.178Z,40.90
2022-11-21T01:46:08.569Z,41.10
2022-11-21T01:46:39.959Z,40.82
2022-11-21T01:47:11.351Z,40.42
2022-11-21T01:47:42.747Z,40.86
2022-11-21T01:48:14.139Z,40.74
2022-11-21T01:48:45.623Z,40.70
2022-11-21T01:49:17.015Z,41.07
2022-11-21T01:49:48.415Z,40.72
2022-11-21T01:50:19.804Z,40.68
2022-11-21T01:50:51.216Z,40.81
2022-11-21T01:51:22.611Z,40.73
2022-11-21T01:51:54.008Z,40.86
2022-11-21T01:52:25.415Z,40.91
2022-11-21T01:52:56.837Z,41.11
2022-11-21T01:53:28.251Z,40.72
2022-11-21T01:53:59.792Z,41.31
2022-11-21T01:54:31.213Z,41.36
2022-11-21T01:55:02.658Z,40.64
2022-11-21T01:55:34.050Z,40.70
2022-11-21T01:56:05.453Z,40.71
2022-11-21T01:56:36.840Z,41.05
2022-11-21T01:57:08.231Z,41.13
2022-11-21T01:57:39.650Z,40.87
2022-11-21T01:58:11.039Z,41.07
2022-11-21T01:58:42.457Z,40.96
2022-11-21T01:59:13.956Z,41.28
2022-11-21T01:59:45.363Z,40.99
2022-11-21T02:00:16.756Z,40.75
2022-11-21T02:00:48.202Z,41.20
2022-11-21T02:01:19.717Z,40.66
2022-11-21T02:01:51.177Z,40.57
2022-11-21T02:02:22.583Z,40.73
2022-11-21T02:02:53.978Z,40.84
2022-11-21T02:03:25.363Z,40.88
2022-11-21T02:03:56.771Z,40.74
2022-11-21T02:04:28.335Z,41.07
2022-11-21T02:04:59.915Z,41.18
2022-11-21T02:05:31.325Z,40.94
2022-11-21T02:06:02.746Z,40.81
2022-11-21T02:06:34.150Z,40.84
2022-11-21T02:07:05.623Z,40.90
2022-11-21T02:07:37.106Z,40.59
2022-11-21T02:08:08.533Z,40.84
2022-11-21T02:08:39.929Z,40.84
2022-11-21T02:09:11.475Z,41.04
2022-11-21T02:09:42.858Z,41.09
2022-11-21T02:10:14.243Z,41.02
2022-11-21T02:10:45.635Z,41.07
2022-11-21T02:11:17.023Z,40.66
2022-11-21T02:11:48.410Z,41.28
2022-11-21T02:12:19.791Z,40.97
2022-11-21T02:12:51.200Z,41.01
2022-11-21T02:13:22.656Z,40.78
2022-11-21T02:13:54.070Z,40.47
2022-11-21T02:14:25.910Z,40.56
2022-11-21T02:14:57.544Z,40.97
2022-11-21T02:15:28.930Z,40.99
2022-11-21T02:16:00.341Z,40.91
2022-11-21T02:16:31.751Z,41.20
2022-11-21T02:17:03.144Z,40.90
2022-11-21T02:17:34.551Z,40.91
2022-11-21T02:18:05.936Z,41.28
2022-11-21T02:18:37.343Z,41.17
2022-11-21T02:19:08.734Z,41.02
2022-11-21T02:19:40.176Z,40.79
2022-11-21T02:20:11.577Z,40.87
2022-11-21T02:20:42.974Z,40.98
2022-11-21T02:21:14.368Z,40.98
2022-11-21T02:21:45.759Z,40.71
2022-11-21T02:22:17.171Z,41.13
2022-11-21T02:22:48.565Z,41.16
2022-11-21T02:23:19.974Z,40.70
2022-11-21T02:23:51.399Z,41.26
2022-11-21T02:24:22.806Z,41.17
2022-11-21T02:24:54.226Z,41.12
2022-11-21T02:25:25.638Z,40.96
2022-11-21T02:25:57.042Z,40.77
2022-11-21T02:26:28.463Z,41.00
2022-11-21T02:26:59.855Z,41.16
2022-11-21T02:27:31.251Z,40.79
2022-11-21T02:28:02.648Z,41.03
2022-11-21T02:28:34.029Z,40.72
2022-11-21T02:29:05.538Z,41.09
2022-11-21T02:29:36.956Z,41.19
2022-11-21T02:30:08.363Z,40.81
2022-11-21T02:30:39.781Z,40.80
2022-11-21T02:31:11.177Z,40.75
2022-11-21T02:31:42.567Z,40.85
2022-11-21T02:32:13.967Z,41.30
2022-11-21T02:32:45.351Z,41.18
2022-11-21T02:33:16.754Z,41.14
2022-11-21T02:33:48.146Z,40.93
2022-11-21T02:34:19.743Z,40.73
2022-11-21T02:34:51.150Z,41.13
2022-11-21T02:35:22.532Z,41.07
2022-11-21T02:35:53.948Z,40.80
2022-11-21T02:36:25.341Z,40.97
2022-11-21T02:36:56.734Z,40.72
2022-11-21T02:37:28.122Z,40.99
2022-11-21T02:37:59.515Z,40.67
2022-11-21T02:38:30.922Z,40.70
2022-11-21T02:39:02.418Z,41.32
2022-11-21T02:39:33.840Z,41.15
2022-11-21T02:40:05.246Z,40.87
2022-11-21T02:40:36.639Z,41.30
2022-11-21T02:41:08.023Z,41.03
2022-11-21T02:41:39.503Z,41.18
2022-11-21T02:42:10.900Z,40.85
2022-11-21T02:42:42.288Z,41.03
2022-11-21T02:43:13.691Z,40.97
2022-11-21T02:43:45.080Z,41.38
2022-11-21T02:44:16.676Z,40.60
2022-11-21T02:44:48.064Z,40.94
2022-11-21T02:45:19.466Z,40.82
2022-11-21T02:45:50.856Z,41.01
2022-11-21T02:46:22.275Z,41.39
2022-11-21T02:46:53.667Z,40.95
2022-11-21T02:47:25.067Z,40.57
2022-11-21T02:48:02.301Z,41.30
2022-11-21T02:48:35.175Z,40.71
2022-11-21T02:49:06.606Z,40.82
2022-11-21T02:49:38.115Z,40.61
2022-11-21T02:50:09.531Z,41.07
2022-11-21T02:50:40.920Z,40.85
2022-11-21T02:51:12.316Z,41.09
2022-11-21T02:51:43.737Z,40.95
2022-11-21T02:52:15.132Z,41.24
2022-11-21T02:52:46.569Z,41.50
2022-11-21T02:53:17.977Z,41.32
2022-11-21T02:53:49.367Z,41.02
2022-11-21T02:54:20.768Z,40.78
2022-11-21T02:54:52.284Z,41.06
2022-11-21T02:55:23.681Z,41.05
2022-11-21T02:55:55.178Z,41.22
2022-11-21T02:56:26.578Z,41.06
2022-11-21T02:56:58.398Z,41.28
2022-11-21T02:57:29.800Z,41.13
2022-11-21T02:58:04.973Z,40.71
2022-11-21T02:58:36.921Z,40.81
2022-11-21T02:59:08.326Z,40.69
2022-11-21T02:59:39.732Z,41.04
2022-11-21T03:00:11.284Z,41.18
2022-11-21T03:00:42.765Z,41.27
2022-11-21T03:01:14.328Z,40.74
2022-11-21T03:01:45.784Z,41.23
2022-11-21T03:02:17.168Z,40.64
2022-11-21T03:02:48.576Z,40.84
2022-11-21T03:03:19.992Z,41.07
2022-11-21T03:03:51.395Z,40.94
2022-11-21T03:04:22.788Z,41.14
2022-11-21T03:04:54.184Z,40.94
2022-11-21T03:05:25.738Z,40.75
2022-11-21T03:05:57.158Z,41.08
2022-11-21T03:06:28.559Z,40.86
2022-11-21T03:07:00.009Z,41.10
2022-11-21T03:07:31.542Z,41.39
2022-11-21T03:08:02.970Z,40.82
2022-11-21T03:08:34.392Z,40.65
2022-11-21T03:09:05.794Z,41.35
2022-11-21T03:09:37.195Z,41.25
2022-11-21T03:10:08.592Z,40.88
2022-11-21T03:10:40.053Z,41.01
2022-11-21T03:11:11.459Z,41.16
2022-11-21T03:11:42.847Z,41.24
2022-11-21T03:12:14.254Z,41.44
2022-11-21T03:12:45.645Z,41.21
2022-11-21T03:13:17.029Z,41.15
2022-11-21T03:13:48.421Z,41.25
2022-11-21T03:14:19.825Z,40.92
2022-11-21T03:14:51.220Z,40.98
2022-11-21T03:15:22.611Z,40.75
2022-11-21T03:15:54.048Z,41.00
2022-11-21T03:16:25.439Z,41.06
2022-11-21T03:16:56.836Z,40.60
2022-11-21T03:17:28.237Z,40.98
2022-11-21T03:17:59.630Z,41.26
2022-11-21T03:18:31.050Z,40.74
2022-11-21T03:19:02.465Z,41.23
2022-11-21T03:19:33.864Z,40.83
2022-11-21T03:20:05.251Z,40.84
2022-11-21T03:20:36.652Z,40.88
2022-11-21T03:21:08.107Z,41.39
2022-11-21T03:21:39.489Z,41.19
2022-11-21T03:22:10.888Z,41.01
2022-11-21T03:22:42.278Z,40.88
2022-11-21T03:23:13.682Z,41.11
2022-11-21T03:23:45.071Z,41.01
2022-11-21T03:24:16.463Z,41.33
2022-11-21T03:24:47.880Z,41.13
2022-11-21T03:25:19.280Z,41.29
2022-11-21T03:25:50.671Z,41.18
2022-11-21T03:26:22.173Z,41.34
2022-11-21T03:26:53.569Z,40.86
2022-11-21T03:27:24.977Z,40.93
2022-11-21T03:27:56.386Z,41.19
2022-11-21T03:28:27.877Z,41.05
2022-11-21T03:28:59.295Z,41.11
2022-11-21T03:29:30.695Z,40.63
2022-11-21T03:30:02.088Z,41.17
2022-11-21T03:30:33.483Z,41.27
2022-11-21T03:31:04.884Z,40.90
2022-11-21T03:31:36.333Z,41.09
2022-11-21T03:32:07.726Z,41.06
2022-11-21T03:32:39.133Z,40.96
2022-11-21T03:33:10.523Z,40.96
2022-11-21T03:33:41.918Z,41.29
2022-11-21T03:34:13.306Z,40.84
2022-11-21T03:34:44.695Z,41.37
2022-11-21T03:35:16.103Z,40.99
2022-11-21T03:35:47.488Z,41.11
2022-11-21T03:36:18.880Z,40.83
2022-11-21T03:36:50.296Z,41.03
2022-11-21T03:37:21.691Z,40.88
2022-11-21T03:37:53.084Z,40.88
2022-11-21T03:38:24.476Z,40.83
2022-11-21T03:38:55.858Z,40.79
2022-11-21T03:39:27.256Z,41.42
2022-11-21T03:39:58.661Z,41.05
2022-11-21T03:40:30.067Z,40.83
2022-11-21T03:41:01.475Z,41.01
2022-11-21T03:41:32.894Z,40.87
2022-11-21T03:42:04.355Z,40.76
2022-11-21T03:42:35.747Z,40.76
2022-11-21T03:43:07.145Z,41.13
2022-11-21T03:43:38.560Z,41.01
2022-11-21T03:44:09.976Z,41.42
2022-11-21T03:44:41.369Z,41.08
2022-11-21T03:45:12.779Z,41.16
2022-11-21T03:45:44.176Z,41.22
2022-11-21T03:46:15.569Z,40.99
2022-11-21T03:46:46.967Z,41.30
2022-11-21T03:47:18.520Z,41.12
2022-11-21T03:47:49.912Z,41.13
2022-11-21T03:48:21.310Z,41.03
2022-11-21T03:48:52.718Z,40.83
2022-11-21T03:49:24.106Z,40.99
2022-11-21T03:49:55.497Z,40.79
2022-11-21T03:50:26.913Z,40.99
2022-11-21T03:50:58.301Z,41.07
2022-11-21T03:51:29.706Z,41.04
2022-11-21T03:52:01.092Z,41.11
2022-11-21T03:52:32.568Z,40.82
2022-11-21T03:53:03.951Z,41.07
2022-11-21T03:53:35.348Z,40.97
2022-11-21T03:54:06.760Z,40.96
2022-11-21T03:54:38.147Z,41.05
2022-11-21T03:55:09.548Z,41.29
2022-11-21T03:55:40.936Z,41.28
2022-11-21T03:56:12.352Z,41.36
2022-11-21T03:56:43.763Z,41.00
2022-11-21T03:57:15.150Z,41.21
2022-11-21T03:57:46.584Z,40.97
2022-11-21T03:58:17.967Z,41.45
2022-11-21T03:58:49.368Z,41.42
2022-11-21T03:59:20.767Z,40.79
2022-11-21T03:59:52.159Z,41.12
2022-11-21T04:00:23.553Z,40.96
2022-11-21T04:00:54.955Z,41.33
2022-11-21T04:01:26.360Z,41.06
2022-11-21T04:01:57.805Z,41.28
2022-11-21T04:02:29.246Z,41.08
2022-11-21T04:03:00.675Z,41.24
2022-11-21T04:03:32.070Z,41.27
2022-11-21T04:04:03.480Z,41.47
2022-11-21T04:04:34.887Z,41.16
2022-11-21T04:05:06.298Z,41.16
2022-11-21T04:05:37.717Z,40.94
2022-11-21T04:06:09.143Z,41.12
2022-11-21T04:06:40.540Z,41.10
2022-11-21T04:07:11.988Z,41.20
2022-11-21T04:07:43.431Z,41.52
2022-11-21T04:08:14.941Z,41.53
2022-11-21T04:08:46.333Z,41.09
2022-11-21T04:09:17.757Z,41.40
2022-11-21T04:09:49.149Z,41.48
2022-11-21T04:10:20.541Z,41.22
2022-11-21T04:10:51.938Z,41.43
2022-11-21T04:11:23.325Z,41.27
2022-11-21T04:11:54.723Z,41.61
2022-11-21T04:12:26.116Z,41.26
2022-11-21T04:12:57.521Z,41.30
2022-11-21T04:13:29.009Z,41.20
2022-11-21T04:14:00.412Z,41.33
2022-11-21T04:14:31.795Z,41.47
2022-11-21T04:15:03.230Z,41.72
2022-11-21T04:15:34.626Z,41.27
2022-11-21T04:16:06.019Z,41.42
2022-11-21T04:16:37.409Z,41.32
2022-11-21T04:17:08.798Z,41.12
2022-11-21T04:17:40.274Z,41.03
2022-11-21T04:18:11.743Z,41.30
2022-11-21T04:18:43.272Z,41.24
2022-11-21T04:19:14.683Z,41.06
2022-11-21T04:19:46.096Z,41.31
2022-11-21T04:20:17.488Z,41.56
2022-11-21T04:20:48.894Z,40.94
2022-11-21T04:21:20.282Z,41.37
2022-11-21T04:21:51.679Z,41.08
2022-11-21T04:22:23.072Z,41.37
2022-11-21T04:22:54.462Z,41.14
2022-11-21T04:23:25.851Z,41.34
2022-11-21T04:23:57.336Z,41.37
2022-11-21T04:24:28.893Z,41.25
2022-11-21T04:25:00.526Z,41.43
2022-11-21T04:25:31.915Z,41.12
2022-11-21T04:26:03.317Z,41.25
2022-11-21T04:26:34.717Z,41.27
2022-11-21T04:27:06.112Z,41.11
2022-11-21T04:27:37.513Z,41.20
2022-11-21T04:28:08.901Z,41.12
2022-11-21T04:28:40.296Z,41.20
2022-11-21T04:29:11.804Z,41.49
2022-11-21T04:29:43.194Z,41.16
2022-11-21T04:30:14.579Z,41.16
2022-11-21T04:30:45.986Z,41.26
2022-11-21T04:31:17.380Z,41.61
2022-11-21T04:31:48.797Z,41.16
2022-11-21T04:32:20.206Z,41.36
2022-11-21T04:32:51.597Z,41.78
2022-11-21T04:33:23.007Z,41.29
2022-11-21T04:33:54.397Z,41.77
2022-11-21T04:34:26.077Z,41.54
2022-11-21T04:34:57.599Z,41.59
2022-11-21T04:35:29.019Z,41.44
2022-11-21T04:36:00.421Z,41.46
2022-11-21T04:36:31.870Z,41.80
2022-11-21T04:37:06.364Z,41.72
2022-11-21T04:37:41.643Z,41.77
2022-11-21T04:38:13.033Z,41.78
2022-11-21T04:38:44.454Z,41.41
2022-11-21T04:39:15.846Z,41.07
2022-11-21T04:39:47.290Z,41.71
2022-11-21T04:40:18.678Z,41.47
2022-11-21T04:40:50.069Z,41.43
2022-11-21T04:41:21.456Z,41.28
2022-11-21T04:41:52.933Z,41.93
2022-11-21T04:42:24.341Z,41.60
2022-11-21T04:42:55.756Z,41.47
2022-11-21T04:43:27.154Z,41.54
2022-11-21T04:43:58.570Z,41.30
2022-11-21T04:44:30.281Z,41.58
2022-11-21T04:45:01.889Z,41.70
2022-11-21T04:45:33.304Z,41.56
2022-11-21T04:46:04.707Z,41.45
2022-11-21T04:46:36.095Z,41.33
2022-11-21T04:47:07.490Z,41.53
2022-11-21T04:47:38.876Z,41.44
2022-11-21T04:48:10.282Z,41.54
2022-11-21T04:48:41.696Z,41.55
2022-11-21T04:49:13.112Z,41.26
2022-11-21T04:49:44.506Z,41.74
2022-11-21T04:50:16.027Z,41.86
2022-11-21T04:50:47.426Z,41.63
2022-11-21T04:51:18.823Z,41.39
2022-11-21T04:51:50.233Z,41.56
2022-11-21T04:52:21.625Z,41.68
2022-11-21T04:52:53.014Z,41.63
2022-11-21T04:53:24.407Z,41.70
2022-11-21T04:53:55.815Z,41.56
2022-11-21T04:54:27.556Z,41.39
2022-11-21T04:54:59.142Z,41.61
2022-11-21T04:55:30.599Z,41.76
2022-11-21T04:56:01.994Z,41.22
2022-11-21T04:56:33.384Z,41.63
2022-11-21T04:57:04.787Z,41.79
2022-11-21T04:57:36.192Z,41.50
2022-11-21T04:58:07.602Z,41.42
2022-11-21T04:58:39.024Z,41.51
2022-11-21T04:59:10.407Z,41.99
2022-11-21T04:59:41.835Z,41.50
2022-11-21T05:00:13.249Z,41.74
2022-11-21T05:00:44.768Z,41.61
2022-11-21T05:01:16.222Z,41.67
2022-11-21T05:01:47.668Z,41.60
2022-11-21T05:02:19.059Z,41.41
2022-11-21T05:02:50.475Z,41.66
2022-11-21T05:03:21.880Z,41.94
2022-11-21T05:03:53.271Z,41.60
2022-11-21T05:04:24.782Z,41.66
2022-11-21T05:04:56.207Z,41.79
2022-11-21T05:05:27.604Z,41.09
2022-11-21T05:05:59.032Z,41.45
2022-11-21T05:06:30.451Z,41.34
2022-11-21T05:07:01.977Z,41.54
2022-11-21T05:07:33.443Z,41.90
2022-11-21T05:08:04.879Z,41.33
2022-11-21T05:08:36.269Z,41.86
2022-11-21T05:09:07.678Z,41.75
2022-11-21T05:09:39.066Z,41.47
2022-11-21T05:10:10.458Z,41.25
2022-11-21T05:10:41.848Z,41.70
2022-11-21T05:11:13.286Z,42.06
2022-11-21T05:11:44.676Z,42.21
2022-11-21T05:12:16.072Z,41.46
2022-11-21T05:12:47.458Z,41.68
2022-11-21T05:13:18.850Z,41.63
2022-11-21T05:13:50.253Z,41.77
2022-11-21T05:14:21.656Z,41.65
2022-11-21T05:14:53.042Z,41.78
2022-11-21T05:15:25.034Z,41.82
2022-11-21T05:15:56.754Z,42.01
2022-11-21T05:16:28.142Z,41.84
2022-11-21T05:16:59.526Z,41.74
2022-11-21T05:17:30.903Z,41.89
2022-11-21T05:18:02.287Z,41.85
2022-11-21T05:18:33.710Z,41.63
2022-11-21T05:19:05.108Z,41.85
2022-11-21T05:19:36.506Z,41.54
2022-11-21T05:20:07.895Z,41.77
2022-11-21T05:20:39.310Z,41.93
2022-11-21T05:21:10.827Z,41.64
2022-11-21T05:21:42.222Z,41.66
2022-11-21T05:22:13.621Z,42.23
2022-11-21T05:22:45.016Z,41.90
2022-11-21T05:23:16.396Z,41.67
2022-11-21T05:23:47.784Z,41.98
2022-11-21T05:24:19.220Z,42.17
2022-11-21T05:24:50.635Z,41.71
2022-11-21T05:25:22.035Z,41.63
2022-11-21T05:25:53.566Z,41.85
2022-11-21T05:26:25.060Z,41.52
2022-11-21T05:26:56.452Z,41.99
2022-11-21T05:27:27.863Z,41.83
2022-11-21T05:27:59.262Z,41.93
2022-11-21T05:28:30.652Z,41.83
2022-11-21T05:29:02.044Z,41.75
2022-11-21T05:29:33.465Z,42.03
2022-11-21T05:30:04.860Z,42.07
2022-11-21T05:30:36.339Z,41.98
2022-11-21T05:31:07.758Z,41.65
2022-11-21T05:31:39.169Z,41.95
2022-11-21T05:32:10.580Z,41.77
2022-11-21T05:32:41.970Z,41.76
2022-11-21T05:33:13.357Z,42.04
2022-11-21T05:33:44.754Z,41.73
2022-11-21T05:34:16.167Z,41.57
2022-11-21T05:34:47.585Z,41.92
2022-11-21T05:35:18.984Z,41.54
2022-11-21T05:35:50.503Z,42.19
2022-11-21T05:36:21.892Z,41.61
2022-11-21T05:36:53.390Z,41.95
2022-11-21T05:37:24.790Z,41.73
2022-11-21T05:37:56.210Z,41.89
2022-11-21T05:38:27.606Z,41.76
2022-11-21T05:38:58.955Z,42.18
2022-11-21T05:39:30.353Z,42.06
2022-11-21T05:40:01.757Z,41.86
2022-11-21T05:40:33.151Z,41.95
2022-11-21T05:41:04.666Z,42.27
2022-11-21T05:41:36.055Z,42.03
2022-11-21T05:42:07.455Z,42.06
2022-11-21T05:42:38.869Z,42.19
2022-11-21T05:43:10.257Z,41.79
2022-11-21T05:43:41.640Z,42.04
2022-11-21T05:44:13.035Z,41.63
2022-11-21T05:44:44.429Z,42.12
2022-11-21T05:45:15.810Z,42.19
2022-11-21T05:45:47.292Z,42.15
2022-11-21T05:46:18.687Z,41.63
2022-11-21T05:46:50.077Z,41.95
2022-11-21T05:47:21.472Z,41.75
2022-11-21T05:47:52.855Z,42.19
2022-11-21T05:48:24.262Z,41.87
2022-11-21T05:48:55.664Z,41.91
2022-11-21T05:49:27.055Z,41.74
2022-11-21T05:49:58.458Z,42.16
2022-11-21T05:50:29.848Z,42.00
2022-11-21T05:51:01.353Z,41.99
2022-11-21T05:51:32.740Z,42.28
2022-11-21T05:52:04.135Z,41.75
2022-11-21T05:52:35.531Z,41.76
2022-11-21T05:53:06.939Z,42.44
2022-11-21T05:53:38.335Z,41.93
2022-11-21T05:54:09.742Z,42.13
2022-11-21T05:54:45.042Z,42.25
2022-11-21T05:55:17.545Z,41.79
2022-11-21T05:55:48.933Z,42.17
2022-11-21T05:56:20.449Z,41.72
2022-11-21T05:56:51.848Z,41.91
2022-11-21T05:57:23.264Z,42.16
2022-11-21T05:57:54.672Z,41.79
2022-11-21T05:58:26.073Z,42.29
2022-11-21T05:58:57.467Z,41.73
2022-11-21T05:59:28.881Z,42.02
2022-11-21T06:00:00.296Z,41.77
2022-11-21T06:00:31.700Z,42.23
2022-11-21T06:01:03.155Z,41.80
2022-11-21T06:01:34.594Z,41.76
2022-11-21T06:02:05.983Z,41.82
2022-11-21T06:02:37.440Z,41.98
2022-11-21T06:03:08.900Z,42.16
2022-11-21T06:03:40.323Z,42.35
2022-11-21T06:04:11.712Z,41.94
2022-11-21T06:04:43.116Z,42.51
2022-11-21T06:05:14.522Z,42.11
2022-11-21T06:05:45.905Z,42.23
2022-11-21T06:06:22.181Z,42.05
2022-11-21T06:06:56.222Z,42.30
2022-11-21T06:07:27.663Z,42.12
2022-11-21T06:07:59.037Z,42.53
2022-11-21T06:08:30.428Z,42.24
2022-11-21T06:09:01.820Z,42.34
2022-11-21T06:09:33.214Z,42.31
2022-11-21T06:10:04.612Z,42.11
2022-11-21T06:10:35.998Z,42.69
2022-11-21T06:11:07.421Z,42.47
2022-11-21T06:11:38.806Z,42.29
2022-11-21T06:12:10.283Z,42.26
2022-11-21T06:12:41.684Z,42.18
2022-11-21T06:13:13.076Z,42.17
2022-11-21T06:13:44.469Z,42.15
2022-11-21T06:14:15.854Z,42.32
2022-11-21T06:14:47.245Z,42.82
2022-11-21T06:15:18.655Z,42.76
2022-11-21T06:15:50.065Z,42.57
2022-11-21T06:16:21.451Z,42.25
2022-11-21T06:16:52.861Z,42.63
2022-11-21T06:17:24.365Z,42.40
2022-11-21T06:17:55.763Z,42.14
2022-11-21T06:18:27.154Z,42.68
2022-11-21T06:18:59.012Z,42.49
2022-11-21T06:19:30.500Z,42.75
2022-11-21T06:20:01.900Z,42.70
2022-11-21T06:20:33.400Z,42.81
2022-11-21T06:21:04.811Z,42.53
2022-11-21T06:21:36.240Z,42.78
2022-11-21T06:22:07.644Z,42.41
2022-11-21T06:22:39.044Z,42.98
2022-11-21T06:23:10.430Z,42.82
2022-11-21T06:23:41.829Z,42.81
2022-11-21T06:24:14.477Z,42.32
2022-11-21T06:24:48.432Z,42.61
2022-11-21T06:25:19.831Z,42.70
2022-11-21T06:25:51.339Z,42.67
2022-11-21T06:26:22.735Z,42.75
2022-11-21T06:26:54.134Z,42.56
2022-11-21T06:27:25.535Z,42.59
2022-11-21T06:27:56.929Z,42.92
2022-11-21T06:28:28.353Z,42.37
2022-11-21T06:28:59.748Z,42.30
2022-11-21T06:29:31.134Z,42.72
2022-11-21T06:30:02.522Z,42.96
2022-11-21T06:30:33.938Z,42.88
2022-11-21T06:31:05.386Z,42.36
2022-11-21T06:31:36.785Z,42.72
2022-11-21T06:32:08.183Z,42.44
2022-11-21T06:32:39.614Z,42.37
2022-11-21T06:33:11.012Z,42.32
2022-11-21T06:33:42.402Z,42.58
2022-11-21T06:34:13.810Z,42.53
2022-11-21T06:34:45.203Z,42.83
2022-11-21T06:35:16.596Z,42.93
2022-11-21T06:35:47.989Z,42.88
2022-11-21T06:36:19.379Z,42.57
2022-11-21T06:36:50.780Z,42.72
2022-11-21T06:37:22.173Z,42.77
2022-11-21T06:37:53.890Z,42.69
2022-11-21T06:38:25.355Z,42.36
2022-11-21T06:38:56.751Z,42.67
2022-11-21T06:39:28.159Z,42.91
2022-11-21T06:39:59.545Z,43.09
2022-11-21T06:40:30.956Z,42.50
2022-11-21T06:41:02.351Z,42.53
2022-11-21T06:41:33.817Z,42.83
2022-11-21T06:42:05.212Z,42.45
2022-11-21T06:42:36.611Z,42.54
2022-11-21T06:43:08.022Z,42.51
2022-11-21T06:43:39.417Z,41.99
2022-11-21T06:44:10.810Z,41.64
2022-11-21T06:44:42.217Z,41.38
2022-11-21T06:45:13.613Z,41.30